Halls, Tennessee
Current Conditions -  °F | °C
As of 2:35 AM on Saturday 29 Nov 2014 (Local Time) from KDYR Reporting Station
Broken Clouds Broken Clouds  
Wind Chill: 43°   Ceiling: 2900
Heat Index: 46°   Visibility: 10mi
Dew Point: 25°   Wind: 7mph
Humidity: 43%   Direction: 180°S
Pressure: 30.05"   Gusts: NA
Location:  35.88°N, 89.4°W
Report Text: KDYR 290835Z 18006KT 10SM BKN029 08/M04 A3005 RMK AO1
Loading
Personal Weather Stations






























Interactive Weather Map New forecast layout! Learn more

10-Day Weather Forecast

Advertisements
Track Severe Weather on mobile